Time;durP1;ratioP1;P1;durP2;ratioP2;P2;SDS_P1;SDS_P2;PMS_P1;PMS_P2;Temp;Humidity;BMP_temperature;BMP_pressure;BME280_temperature;BME280_humidity;BME280_pressure;Samples;Min_cycle;Max_cycle;Signal;HPM_P1;HPM_P2
2022/03/25 00:02:23;;;;;;;100.30;72.10;;;16.60;74.30;;;;;;5129889;29;20043;-28
2022/03/25 00:04:54;;;;;;;110.47;75.83;;;16.60;74.60;;;;;;5129848;28;20074;-28
2022/03/25 00:07:27;;;;;;;125.83;81.97;;;16.60;74.90;;;;;;5130400;29;20047;-30
2022/03/25 00:09:59;;;;;;;125.00;83.00;;;16.60;75.10;;;;;;5113099;29;20047;-27
2022/03/25 00:12:31;;;;;;;124.97;84.60;;;16.60;75.20;;;;;;5129736;29;20437;-29
2022/03/25 00:15:02;;;;;;;151.57;95.45;;;16.60;75.30;;;;;;5129429;29;20054;-29
2022/03/25 00:17:33;;;;;;;166.60;104.13;;;16.60;75.50;;;;;;5129496;29;20066;-28
2022/03/25 00:20:05;;;;;;;171.13;105.03;;;16.60;75.70;;;;;;5112630;29;20071;-28
2022/03/25 00:22:36;;;;;;;163.07;103.30;;;16.60;76.10;;;;;;5112287;29;20085;-28
2022/03/25 00:25:08;;;;;;;175.63;102.90;;;16.60;76.40;;;;;;5129417;29;20043;-28
2022/03/25 00:27:39;;;;;;;173.57;108.65;;;16.60;77.10;;;;;;5129387;29;20047;-28
2022/03/25 00:30:10;;;;;;;166.07;103.50;;;16.60;76.70;;;;;;5128919;29;20047;-28
2022/03/25 00:32:41;;;;;;;159.57;97.50;;;16.60;77.10;;;;;;5112367;29;20039;-28
2022/03/25 00:35:12;;;;;;;153.57;97.57;;;16.50;77.30;;;;;;5129101;29;20051;-28
2022/03/25 00:37:43;;;;;;;148.67;97.43;;;16.60;77.60;;;;;;5112074;29;20075;-28
2022/03/25 00:40:14;;;;;;;128.50;87.70;;;16.60;77.80;;;;;;5129142;29;20082;-31
2022/03/25 00:42:45;;;;;;;124.33;82.07;;;16.60;78.10;;;;;;5112540;29;20047;-28
2022/03/25 00:45:17;;;;;;;120.90;80.17;;;16.50;78.40;;;;;;5128959;28;20067;-30
2022/03/25 00:47:48;;;;;;;114.17;77.67;;;16.50;78.80;;;;;;5111947;29;20077;-29
2022/03/25 00:50:20;;;;;;;114.40;78.33;;;16.50;78.90;;;;;;5111704;29;20511;-27
2022/03/25 00:52:51;;;;;;;112.40;78.82;;;16.50;79.00;;;;;;5129099;29;20047;-28
2022/03/25 00:55:22;;;;;;;105.50;74.63;;;16.50;79.30;;;;;;5111774;29;20378;-28
2022/03/25 00:57:53;;;;;;;109.63;75.30;;;16.50;79.90;;;;;;5128661;29;20110;-29
2022/03/25 01:00:24;;;;;;;101.43;72.33;;;16.50;80.10;;;;;;5128884;29;20492;-28
2022/03/25 01:02:55;;;;;;;101.22;71.78;;;16.50;80.70;;;;;;5128606;28;20412;-28
2022/03/25 01:05:26;;;;;;;99.73;71.00;;;16.50;80.80;;;;;;5128809;29;20043;-28
2022/03/25 01:07:57;;;;;;;92.70;67.73;;;16.50;80.50;;;;;;5128629;29;20066;-28
2022/03/25 01:10:28;;;;;;;97.40;68.03;;;16.50;81.00;;;;;;5128690;29;20055;-28
2022/03/25 01:12:59;;;;;;;91.23;66.23;;;16.50;81.20;;;;;;5128795;29;20039;-28
2022/03/25 01:15:30;;;;;;;99.18;67.43;;;16.50;81.20;;;;;;5128445;29;20043;-30
2022/03/25 01:18:02;;;;;;;105.90;70.63;;;16.50;81.30;;;;;;5111565;29;20589;-28
2022/03/25 01:20:34;;;;;;;100.73;71.07;;;16.50;81.40;;;;;;5112200;29;20121;-28
2022/03/25 01:23:07;;;;;;;102.97;71.07;;;16.50;81.30;;;;;;5128537;29;20500;-28
2022/03/25 01:25:38;;;;;;;97.70;70.13;;;16.50;81.60;;;;;;5128226;29;20054;-28
2022/03/25 01:28:09;;;;;;;100.47;70.10;;;16.50;81.90;;;;;;5128270;29;20400;-28
2022/03/25 01:30:40;;;;;;;103.00;72.47;;;16.50;81.70;;;;;;5095697;29;20059;-29
2022/03/25 01:33:11;;;;;;;116.00;78.07;;;16.50;81.70;;;;;;5127910;29;20043;-29
2022/03/25 01:35:42;;;;;;;124.03;83.93;;;16.50;82.00;;;;;;5128256;29;20110;-28
2022/03/25 01:38:13;;;;;;;130.23;88.90;;;16.50;82.00;;;;;;5128077;29;20485;-31
2022/03/25 01:40:44;;;;;;;144.97;95.37;;;16.50;82.10;;;;;;5128062;29;20122;-27
2022/03/25 01:43:15;;;;;;;138.13;93.87;;;16.40;81.90;;;;;;5127809;29;20047;-28
2022/03/25 01:45:46;;;;;;;123.27;86.13;;;16.40;82.20;;;;;;5127784;29;20075;-28
2022/03/25 01:48:17;;;;;;;110.17;74.97;;;16.50;82.30;;;;;;5127791;29;20089;-27
2022/03/25 01:50:48;;;;;;;99.13;69.17;;;16.50;82.40;;;;;;5110849;29;20071;-28
2022/03/25 01:53:23;;;;;;;95.73;64.00;;;16.50;82.80;;;;;;5127884;29;20047;-30
2022/03/25 01:55:59;;;;;;;91.40;62.40;;;16.40;82.90;;;;;;5111683;28;20051;-30
2022/03/25 01:58:31;;;;;;;93.23;63.07;;;16.40;83.20;;;;;;5110893;29;20054;-28
2022/03/25 02:01:03;;;;;;;85.20;61.10;;;16.40;83.50;;;;;;5110519;29;20043;-29
2022/03/25 02:03:35;;;;;;;80.75;58.80;;;16.40;83.70;;;;;;5127656;28;20510;-30
2022/03/25 02:06:06;;;;;;;88.27;63.00;;;16.40;83.90;;;;;;5127530;29;20054;-28
2022/03/25 02:08:37;;;;;;;91.57;64.60;;;16.40;84.10;;;;;;5110494;29;20047;-27
2022/03/25 02:11:09;;;;;;;102.60;67.83;;;16.40;84.20;;;;;;5127746;29;20039;-28
2022/03/25 02:13:40;;;;;;;106.20;70.30;;;16.40;84.30;;;;;;5127501;29;20044;-29
2022/03/25 02:16:10;;;;;;;103.27;71.03;;;16.40;84.70;;;;;;5127314;29;20054;-28
2022/03/25 02:18:42;;;;;;;96.73;66.50;;;16.40;84.50;;;;;;5110102;29;20059;-30
2022/03/25 02:21:12;;;;;;;95.07;66.93;;;16.40;84.40;;;;;;5127167;29;20043;-30
2022/03/25 02:23:44;;;;;;;92.97;67.00;;;16.40;84.40;;;;;;5127096;29;20047;-28
2022/03/25 02:26:15;;;;;;;96.47;66.50;;;16.40;84.50;;;;;;5127283;29;20472;-28
2022/03/25 02:28:47;;;;;;;97.77;66.30;;;16.40;84.70;;;;;;5109816;29;20489;-28
2022/03/25 02:31:18;;;;;;;98.87;70.40;;;16.40;84.40;;;;;;5110014;29;20130;-28
2022/03/25 02:33:49;;;;;;;102.37;71.13;;;16.40;84.60;;;;;;5127162;29;20044;-28
2022/03/25 02:36:20;;;;;;;104.63;73.50;;;16.40;84.30;;;;;;5109960;29;20063;-30
2022/03/25 02:38:51;;;;;;;113.53;80.80;;;16.40;84.50;;;;;;5126957;29;20392;-29
2022/03/25 02:41:22;;;;;;;123.93;87.40;;;16.40;84.50;;;;;;5126447;29;20055;-28
2022/03/25 02:43:53;;;;;;;112.63;81.10;;;16.40;84.40;;;;;;5110237;29;20540;-30
2022/03/25 02:46:23;;;;;;;106.97;74.47;;;16.40;84.40;;;;;;5127429;29;20051;-30
2022/03/25 02:48:55;;;;;;;106.90;74.67;;;16.40;84.80;;;;;;5127124;29;20047;-28
2022/03/25 02:51:26;;;;;;;112.97;75.77;;;16.40;84.90;;;;;;5109846;29;20484;-29
2022/03/25 02:53:57;;;;;;;109.67;76.53;;;16.40;84.90;;;;;;5127247;29;20429;-28
2022/03/25 02:56:28;;;;;;;106.87;73.57;;;16.40;85.10;;;;;;5110200;29;20047;-28
2022/03/25 02:58:59;;;;;;;111.67;79.53;;;16.40;85.20;;;;;;5110027;29;20043;-30
2022/03/25 03:01:30;;;;;;;115.57;81.43;;;16.40;84.90;;;;;;5109789;29;20488;-28
2022/03/25 03:04:01;;;;;;;119.10;82.90;;;16.40;85.30;;;;;;5126180;28;20059;-28
2022/03/25 03:06:32;;;;;;;118.00;86.97;;;16.40;85.30;;;;;;5126535;29;20051;-31
2022/03/25 03:09:03;;;;;;;123.60;87.47;;;16.40;85.70;;;;;;5126228;29;20051;-28
2022/03/25 03:11:35;;;;;;;123.33;85.90;;;16.40;85.70;;;;;;5126419;29;20062;-28
2022/03/25 03:14:06;;;;;;;128.37;88.80;;;16.40;86.10;;;;;;5109355;29;20098;-28
2022/03/25 03:16:37;;;;;;;131.00;92.67;;;16.40;86.10;;;;;;5109596;29;20449;-30
2022/03/25 03:19:08;;;;;;;131.30;94.70;;;16.30;86.10;;;;;;5127003;29;20628;-30
2022/03/25 03:21:39;;;;;;;132.47;92.47;;;16.30;86.20;;;;;;5109688;29;20130;-28
2022/03/25 03:24:10;;;;;;;137.55;95.32;;;16.40;86.30;;;;;;5126437;29;20051;-28
2022/03/25 03:26:41;;;;;;;142.17;98.60;;;16.40;86.50;;;;;;5109418;29;20420;-31
2022/03/25 03:29:13;;;;;;;142.73;99.37;;;16.40;86.40;;;;;;5126314;29;20051;-28
2022/03/25 03:31:44;;;;;;;141.13;98.40;;;16.40;86.40;;;;;;5126471;29;20047;-28
2022/03/25 03:34:15;;;;;;;147.30;101.30;;;16.30;86.30;;;;;;5126430;29;20047;-31
2022/03/25 03:36:46;;;;;;;142.17;99.53;;;16.40;86.30;;;;;;5109558;29;20547;-28
2022/03/25 03:39:17;;;;;;;128.33;95.40;;;16.30;86.20;;;;;;5109403;29;20486;-29
2022/03/25 03:41:48;;;;;;;131.53;93.30;;;16.30;86.20;;;;;;5126204;29;20035;-27
2022/03/25 03:44:19;;;;;;;130.40;91.40;;;16.30;86.30;;;;;;5126367;29;20393;-28
2022/03/25 03:46:51;;;;;;;133.53;92.00;;;16.30;86.30;;;;;;5109411;29;20051;-28
2022/03/25 03:49:23;;;;;;;128.80;93.03;;;16.30;86.30;;;;;;5126322;29;20039;-28
2022/03/25 03:51:54;;;;;;;135.77;95.03;;;16.30;86.20;;;;;;5126771;29;20070;-29
2022/03/25 03:54:25;;;;;;;134.67;95.10;;;16.30;86.40;;;;;;5109100;29;20440;-28
2022/03/25 03:56:56;;;;;;;121.80;88.83;;;16.30;86.30;;;;;;5109225;29;20050;-28
2022/03/25 03:59:27;;;;;;;126.17;87.90;;;16.30;86.50;;;;;;5125900;29;20105;-28
2022/03/25 04:01:58;;;;;;;122.33;84.03;;;16.30;86.80;;;;;;5126079;29;20040;-28
2022/03/25 04:04:30;;;;;;;116.70;82.83;;;16.30;86.90;;;;;;5092526;29;20448;-28
2022/03/25 04:07:01;;;;;;;112.90;80.27;;;16.30;87.00;;;;;;5125735;29;20098;-28
2022/03/25 04:09:32;;;;;;;109.40;77.23;;;16.30;87.40;;;;;;5126131;29;20039;-28
2022/03/25 04:12:03;;;;;;;105.77;74.00;;;16.30;87.10;;;;;;5109413;29;20057;-31
2022/03/25 04:14:35;;;;;;;99.87;73.13;;;16.30;87.60;;;;;;5126039;29;20524;-28
2022/03/25 04:17:07;;;;;;;109.20;76.93;;;16.30;87.10;;;;;;5125985;29;20106;-31
2022/03/25 04:19:38;;;;;;;105.77;76.03;;;16.30;87.40;;;;;;5108810;29;20396;-28
2022/03/25 04:22:09;;;;;;;107.67;76.97;;;16.30;87.50;;;;;;5129683;29;20051;-28
2022/03/25 04:24:40;;;;;;;109.33;75.93;;;16.30;87.70;;;;;;5129505;29;20536;-28
2022/03/25 04:27:11;;;;;;;109.63;73.67;;;16.30;87.70;;;;;;5129611;29;20047;-30
2022/03/25 04:29:44;;;;;;;111.10;78.10;;;16.30;88.00;;;;;;5129231;29;20055;-29
2022/03/25 04:32:15;;;;;;;107.43;75.77;;;16.30;87.90;;;;;;5129476;29;20054;-28
2022/03/25 04:34:46;;;;;;;105.07;72.43;;;16.30;87.90;;;;;;5129430;29;20047;-29
2022/03/25 04:37:17;;;;;;;95.47;67.17;;;16.30;87.90;;;;;;5112193;29;20102;-28
2022/03/25 04:39:48;;;;;;;99.27;69.60;;;16.30;88.20;;;;;;5129164;29;20059;-29
2022/03/25 04:42:19;;;;;;;97.87;66.23;;;16.30;88.30;;;;;;5129001;29;20047;-30
2022/03/25 04:44:50;;;;;;;96.57;68.47;;;16.30;88.40;;;;;;5129182;29;20122;-31
2022/03/25 04:47:21;;;;;;;95.10;68.60;;;16.30;88.00;;;;;;5129106;29;20121;-29
2022/03/25 04:49:52;;;;;;;106.47;74.43;;;16.30;88.20;;;;;;5129037;29;20405;-29
2022/03/25 04:52:23;;;;;;;107.73;74.73;;;16.30;88.70;;;;;;5129620;29;20051;-29
2022/03/25 04:54:54;;;;;;;106.33;76.10;;;16.40;78.70;;;;;;5128624;29;20055;-29
2022/03/25 04:57:25;;;;;;;105.57;74.93;;;16.40;70.60;;;;;;5111465;29;20047;-29
2022/03/25 04:59:56;;;;;;;105.57;76.10;;;16.50;67.60;;;;;;5128728;29;20090;-30
2022/03/25 05:02:27;;;;;;;104.97;75.40;;;16.50;66.30;;;;;;5128759;29;20425;-28
2022/03/25 05:04:58;;;;;;;96.88;70.00;;;16.60;65.70;;;;;;5128459;28;20062;-28
2022/03/25 05:07:30;;;;;;;100.28;71.60;;;16.70;65.20;;;;;;5128391;29;20156;-30
2022/03/25 05:10:01;;;;;;;90.70;67.10;;;16.70;64.70;;;;;;5128455;29;20058;-29
2022/03/25 05:12:34;;;;;;;59.43;47.13;;;16.80;65.30;;;;;;5111503;29;20429;-28
2022/03/25 05:15:05;;;;;;;59.75;49.00;;;16.50;65.70;;;;;;5128429;29;20058;-27
2022/03/25 05:17:46;;;;;;;75.07;59.17;;;16.10;66.50;;;;;;5127397;29;20045;-28
2022/03/25 05:20:18;;;;;;;71.70;55.13;;;15.70;67.10;;;;;;5127877;29;20086;-29
2022/03/25 05:22:50;;;;;;;58.55;46.35;;;15.40;67.40;;;;;;5128412;29;20051;-28
2022/03/25 05:25:22;;;;;;;56.30;45.13;;;15.20;67.80;;;;;;5128097;29;20058;-27
2022/03/25 05:27:58;;;;;;;56.13;44.07;;;15.00;68.30;;;;;;5128011;29;20098;-28
2022/03/25 05:30:31;;;;;;;61.47;50.47;;;14.90;68.70;;;;;;5127639;28;20059;-28
2022/03/25 05:33:03;;;;;;;61.92;47.80;;;14.80;69.00;;;;;;5128673;29;20051;-28
2022/03/25 05:35:34;;;;;;;64.37;51.07;;;14.60;69.40;;;;;;5128267;29;20048;-30
2022/03/25 05:38:05;;;;;;;66.53;49.57;;;14.50;69.60;;;;;;5128287;29;20039;-28
2022/03/25 05:40:38;;;;;;;65.37;48.00;;;14.40;69.50;;;;;;5127539;29;20059;-29
2022/03/25 05:43:09;;;;;;;55.33;43.60;;;14.30;69.70;;;;;;5128025;29;20074;-28
2022/03/25 05:45:40;;;;;;;51.73;40.40;;;14.30;69.80;;;;;;5128014;29;20043;-28
2022/03/25 05:48:11;;;;;;;50.70;40.23;;;14.30;69.90;;;;;;5128024;29;20039;-30
2022/03/25 05:50:43;;;;;;;52.83;40.97;;;14.40;69.90;;;;;;5110725;29;20058;-28
2022/03/25 05:53:14;;;;;;;52.20;41.63;;;14.40;70.10;;;;;;5127813;29;20138;-30
2022/03/25 05:55:45;;;;;;;50.60;38.87;;;14.50;70.30;;;;;;5127535;29;20118;-28
2022/03/25 05:58:15;;;;;;;54.93;42.43;;;14.50;70.10;;;;;;5128103;29;20055;-29
2022/03/25 06:00:47;;;;;;;56.00;44.13;;;14.60;70.10;;;;;;5127667;29;20091;-28
2022/03/25 06:03:36;;;;;;;54.20;43.37;;;14.60;70.00;;;;;;5127524;28;20095;-30
2022/03/25 06:06:08;;;;;;;52.60;41.57;;;14.70;70.20;;;;;;5127690;29;20404;-28
2022/03/25 06:08:40;;;;;;;53.23;41.63;;;14.70;70.20;;;;;;5111051;29;20051;-27
2022/03/25 06:11:11;;;;;;;53.37;41.80;;;14.70;70.30;;;;;;5127854;29;20047;-28
2022/03/25 06:13:42;;;;;;;57.23;44.07;;;14.80;70.70;;;;;;5114345;29;20058;-28
2022/03/25 06:16:16;;;;;;;56.43;45.03;;;14.80;70.70;;;;;;5110137;29;20678;-28
2022/03/25 06:18:47;;;;;;;54.60;42.90;;;14.80;70.90;;;;;;5116875;29;20078;-28
2022/03/25 06:21:20;;;;;;;56.03;41.03;;;14.80;71.00;;;;;;5108260;29;20130;-28
2022/03/25 06:23:52;;;;;;;46.33;37.07;;;14.90;72.20;;;;;;5111837;28;20118;-29
2022/03/25 06:26:23;;;;;;;49.73;37.60;;;15.10;72.90;;;;;;5107460;29;20501;-28
2022/03/25 06:28:54;;;;;;;53.10;40.00;;;15.30;73.20;;;;;;5107021;28;20047;-28
2022/03/25 06:31:25;;;;;;;53.60;39.03;;;15.60;74.60;;;;;;5109874;29;20051;-29
2022/03/25 06:33:56;;;;;;;49.13;37.13;;;15.80;76.00;;;;;;5116218;29;20051;-29
2022/03/25 06:36:27;;;;;;;56.37;41.33;;;16.00;76.40;;;;;;5108237;29;20586;-29
2022/03/25 06:38:58;;;;;;;54.03;39.60;;;16.10;76.80;;;;;;5117757;29;20052;-29
2022/03/25 06:41:30;;;;;;;58.28;41.00;;;16.20;77.20;;;;;;5115021;29;20384;-28
2022/03/25 06:44:01;;;;;;;56.85;41.22;;;16.40;75.90;;;;;;5116832;28;20086;-28
2022/03/25 06:46:32;;;;;;;51.38;40.33;;;16.50;77.40;;;;;;5110813;29;20051;-30
2022/03/25 06:49:05;;;;;;;45.95;36.10;;;16.50;77.70;;;;;;5095209;29;20656;-29
2022/03/25 06:51:38;;;;;;;46.80;33.42;;;16.60;78.40;;;;;;5112740;29;20067;-30
2022/03/25 06:54:10;;;;;;;36.85;29.42;;;16.60;79.20;;;;;;5113170;29;20070;-28
2022/03/25 06:56:42;;;;;;;34.97;28.55;;;16.70;78.50;;;;;;5111710;29;20047;-28
2022/03/25 06:59:20;;;;;;;38.35;28.75;;;16.70;79.10;;;;;;5108767;29;20166;-28
2022/03/25 07:02:06;;;;;;;38.53;29.17;;;16.70;79.30;;;;;;5097976;29;20078;-29
2022/03/25 07:04:45;;;;;;;;;;;16.80;79.60;;;;;;5113428;29;20043;-28
2022/03/25 07:07:26;;;;;;;42.03;30.65;;;16.80;79.30;;;;;;5111207;29;19922;-28
2022/03/25 07:09:58;;;;;;;38.78;30.30;;;16.80;80.40;;;;;;5116750;29;20074;-28
2022/03/25 07:12:29;;;;;;;38.95;30.95;;;16.90;81.00;;;;;;5114568;29;20054;-28
2022/03/25 07:15:01;;;;;;;37.83;29.55;;;16.90;81.10;;;;;;5101936;29;20149;-29
2022/03/25 07:17:33;;;;;;;37.83;29.13;;;16.90;81.90;;;;;;5097866;29;20549;-28
2022/03/25 07:20:08;;;;;;;39.17;30.05;;;17.00;81.20;;;;;;5091921;29;20054;-29
2022/03/25 07:22:43;;;;;;;38.53;28.67;;;17.00;81.10;;;;;;5114675;29;20055;-27
2022/03/25 07:25:14;;;;;;;36.38;28.08;;;17.00;81.20;;;;;;5091558;29;20051;-28
2022/03/25 07:27:46;;;;;;;34.17;26.83;;;17.00;81.30;;;;;;5118251;29;20461;-29
2022/03/25 07:30:17;;;;;;;33.65;27.08;;;17.00;84.30;;;;;;5108120;29;20056;-29
2022/03/25 07:32:48;;;;;;;34.40;27.38;;;17.10;85.10;;;;;;5118036;29;20054;-29
2022/03/25 07:35:19;;;;;;;33.83;27.30;;;17.10;85.80;;;;;;5094535;29;20055;-29
2022/03/25 07:37:50;;;;;;;33.38;27.15;;;17.10;82.40;;;;;;5093323;29;20051;-29
2022/03/25 07:40:22;;;;;;;32.67;25.35;;;17.20;83.10;;;;;;5109506;29;20426;-30
2022/03/25 07:42:53;;;;;;;31.65;24.95;;;17.30;83.20;;;;;;5112241;29;20100;-28
2022/03/25 07:45:24;;;;;;;33.10;25.58;;;17.40;82.20;;;;;;5111007;29;20044;-30
2022/03/25 07:47:55;;;;;;;33.25;26.63;;;17.50;82.60;;;;;;5095439;29;20055;-29
2022/03/25 07:50:26;;;;;;;29.73;25.25;;;17.50;83.70;;;;;;5110925;29;20043;-31
2022/03/25 07:52:57;;;;;;;30.40;24.33;;;17.60;84.20;;;;;;5098889;29;20060;-28
2022/03/25 07:55:28;;;;;;;32.10;26.00;;;17.60;84.50;;;;;;5118123;28;20039;-29
2022/03/25 07:57:59;;;;;;;30.73;25.67;;;17.60;84.80;;;;;;5092767;29;20063;-28
2022/03/25 08:00:30;;;;;;;30.05;25.13;;;17.60;85.00;;;;;;5115275;29;20042;-28
2022/03/25 08:03:01;;;;;;;29.70;23.80;;;17.60;85.50;;;;;;5093140;29;20055;-28
2022/03/25 08:05:34;;;;;;;28.02;23.35;;;17.60;85.60;;;;;;5093129;29;20047;-28
2022/03/25 08:08:05;;;;;;;29.52;23.30;;;17.60;86.10;;;;;;5110140;29;20517;-29
2022/03/25 08:10:36;;;;;;;28.30;23.20;;;17.60;86.00;;;;;;5109925;29;20118;-28
2022/03/25 08:13:07;;;;;;;26.10;22.48;;;17.60;86.30;;;;;;5092665;29;20055;-29
2022/03/25 08:15:38;;;;;;;27.35;22.98;;;17.50;86.80;;;;;;5077056;29;20043;-28
2022/03/25 08:18:13;;;;;;;27.83;22.45;;;17.50;86.00;;;;;;5109857;29;20063;-29
2022/03/25 08:20:45;;;;;;;27.33;22.30;;;17.60;87.10;;;;;;5109734;29;20072;-28
2022/03/25 08:29:01;;;;;;;24.23;21.00;;;17.60;84.50;;;;;;5095711;29;20060;-30
2022/03/25 08:31:34;;;;;;;26.77;22.08;;;17.60;85.10;;;;;;5093034;29;20067;-28
2022/03/25 08:34:08;;;;;;;27.38;22.70;;;17.60;84.70;;;;;;5110014;29;20102;-30
2022/03/25 08:36:39;;;;;;;;;;;17.60;84.50;;;;;;5109637;29;20134;-28
2022/03/25 08:39:10;;;;;;;24.92;21.13;;;17.60;84.50;;;;;;5109482;29;19923;-28
2022/03/25 08:41:41;;;;;;;25.83;21.60;;;17.60;84.50;;;;;;5092430;29;20044;-28
2022/03/25 08:44:13;;;;;;;26.75;22.48;;;17.60;85.10;;;;;;5109057;29;20075;-28
2022/03/25 08:46:49;;;;;;;28.10;22.13;;;17.60;85.40;;;;;;5093156;29;20055;-29
2022/03/25 08:49:22;;;;;;;27.70;22.92;;;17.50;85.10;;;;;;5093119;29;20039;-28
2022/03/25 08:51:53;;;;;;;29.20;23.27;;;17.50;85.40;;;;;;5109293;29;20040;-28
2022/03/25 08:54:25;;;;;;;28.80;23.17;;;17.50;85.00;;;;;;5108899;29;20137;-30
2022/03/25 08:56:56;;;;;;;31.65;23.25;;;17.50;84.90;;;;;;5109111;29;20048;-28
2022/03/25 08:59:27;;;;;;;29.40;22.67;;;17.50;84.80;;;;;;5109202;29;20520;-28
2022/03/25 09:01:59;;;;;;;30.08;23.23;;;17.50;84.10;;;;;;5109022;29;20122;-28
2022/03/25 09:04:31;;;;;;;27.98;22.60;;;17.50;84.00;;;;;;5108631;29;20056;-30
2022/03/25 09:07:02;;;;;;;28.92;22.05;;;17.50;84.50;;;;;;5108027;29;20050;-28
2022/03/25 09:09:34;;;;;;;29.35;24.08;;;17.60;84.80;;;;;;5108799;29;20446;-29
2022/03/25 09:12:05;;;;;;;27.52;22.73;;;17.50;83.90;;;;;;5091849;29;20061;-27
2022/03/25 09:14:36;;;;;;;29.60;22.67;;;17.50;84.10;;;;;;5108582;29;20051;-28
2022/03/25 09:17:08;;;;;;;27.40;22.50;;;17.50;84.10;;;;;;5108983;29;20048;-30
2022/03/25 09:19:39;;;;;;;31.35;23.42;;;17.50;84.60;;;;;;5108707;29;20073;-30
2022/03/25 09:22:10;;;;;;;27.95;22.55;;;17.50;85.00;;;;;;5108510;29;20060;-31
2022/03/25 09:24:41;;;;;;;28.75;22.42;;;17.50;84.10;;;;;;5108448;29;20557;-28
2022/03/25 09:27:12;;;;;;;27.20;22.90;;;17.50;83.80;;;;;;5091644;29;20076;-28
2022/03/25 09:29:45;;;;;;;29.05;21.65;;;17.50;84.60;;;;;;5108340;29;20051;-30
2022/03/25 09:32:16;;;;;;;28.35;21.80;;;17.50;83.00;;;;;;5108184;29;20511;-28
2022/03/25 09:37:43;;;;;;;30.48;22.83;;;17.50;86.90;;;;;;5108371;29;20055;-28
2022/03/25 09:40:33;;;;;;;26.13;21.42;;;17.50;88.30;;;;;;5108283;29;20501;-28
2022/03/25 09:43:06;;;;;;;25.83;20.33;;;17.60;88.30;;;;;;5108506;29;20209;-29
2022/03/25 09:45:37;;;;;;;29.08;22.23;;;17.50;87.80;;;;;;5091393;29;20083;-28
2022/03/25 09:48:08;;;;;;;25.67;20.35;;;17.50;88.30;;;;;;5108003;29;20126;-28
2022/03/25 09:50:40;;;;;;;26.95;22.08;;;17.50;87.50;;;;;;5108101;29;20040;-29
2022/03/25 09:53:11;;;;;;;26.55;21.45;;;17.50;88.20;;;;;;5108386;29;20055;-30
2022/03/25 09:55:51;;;;;;;25.52;20.15;;;17.50;89.20;;;;;;5091510;29;20050;-28
2022/03/25 09:58:23;;;;;;;25.25;18.73;;;17.50;89.70;;;;;;5092163;29;20054;-28
2022/03/25 10:00:54;;;;;;;24.00;18.50;;;17.50;85.10;;;;;;5107833;29;20079;-28
2022/03/25 10:03:36;;;;;;;22.55;17.67;;;17.50;88.20;;;;;;5091240;29;20047;-28
2022/03/25 10:06:11;;;;;;;22.33;17.13;;;17.50;88.30;;;;;;5107594;29;20066;-28
2022/03/25 10:08:43;;;;;;;22.38;18.00;;;17.50;87.80;;;;;;5090769;29;20044;-29
2022/03/25 10:11:32;;;;;;;23.63;18.25;;;17.50;87.90;;;;;;5106532;29;20055;-30
2022/03/25 10:14:15;;;;;;;23.63;18.17;;;17.50;88.90;;;;;;5107711;29;20397;-28
2022/03/25 10:16:49;;;;;;;24.10;17.48;;;17.50;88.60;;;;;;5107516;29;20044;-28
2022/03/25 10:19:21;;;;;;;23.88;18.85;;;17.50;89.00;;;;;;5089897;29;20094;-28
2022/03/25 10:21:56;;;;;;;24.35;19.25;;;17.50;88.60;;;;;;5107326;29;20417;-31
2022/03/25 10:24:40;;;;;;;25.27;19.48;;;17.50;90.40;;;;;;5107612;29;20051;-28
2022/03/25 10:27:12;;;;;;;24.17;19.63;;;17.50;91.90;;;;;;5107631;29;20073;-28
2022/03/25 10:29:44;;;;;;;25.58;19.88;;;17.40;91.70;;;;;;5090872;29;20070;-29
2022/03/25 10:32:20;;;;;;;24.17;18.95;;;17.40;92.50;;;;;;5066486;29;20150;-28
2022/03/25 10:35:12;;;;;;;24.70;20.33;;;17.40;92.50;;;;;;5108304;29;20127;-28
2022/03/25 10:37:56;;;;;;;23.25;16.92;;;17.40;94.50;;;;;;5125010;29;20114;-30
2022/03/25 10:40:32;;;;;;;28.38;19.27;;;17.30;91.80;;;;;;5124455;29;20035;-28
2022/03/25 10:43:05;;;;;;;23.55;17.80;;;17.30;89.50;;;;;;5107626;29;20047;-29
2022/03/25 10:45:40;;;;;;;21.45;17.10;;;17.30;91.90;;;;;;5125210;29;20086;-29
2022/03/25 10:48:21;;;;;;;21.73;16.85;;;17.30;91.80;;;;;;5109799;29;20051;-29
2022/03/25 10:50:56;;;;;;;21.05;16.92;;;17.30;91.80;;;;;;5126914;29;20047;-28
2022/03/25 10:53:29;;;;;;;20.27;15.75;;;17.30;92.10;;;;;;5126933;29;20054;-29
2022/03/25 10:56:02;;;;;;;23.40;17.58;;;17.30;91.80;;;;;;5109512;29;20043;-29
2022/03/25 10:58:34;;;;;;;24.23;18.08;;;17.20;94.50;;;;;;5126679;29;20417;-29
2022/03/25 11:01:08;;;;;;;22.70;17.08;;;17.30;91.90;;;;;;5109751;29;20415;-28
2022/03/25 11:03:41;;;;;;;21.90;18.13;;;17.30;89.40;;;;;;5126359;28;20062;-28
2022/03/25 11:06:15;;;;;;;21.75;17.25;;;17.30;89.90;;;;;;5109452;29;20054;-28
2022/03/25 11:08:47;;;;;;;23.02;17.27;;;17.40;90.70;;;;;;5110205;29;20506;-29
2022/03/25 11:11:18;;;;;;;17.05;14.27;;;17.40;90.80;;;;;;5126535;29;20043;-28
2022/03/25 11:13:51;;;;;;;20.67;17.27;;;17.40;90.20;;;;;;5126154;29;20043;-28
2022/03/25 11:16:22;;;;;;;21.20;16.73;;;17.40;89.40;;;;;;5126932;29;20059;-29
2022/03/25 11:19:02;;;;;;;21.83;17.67;;;17.40;91.30;;;;;;5109461;29;20409;-28
2022/03/25 11:21:39;;;;;;;21.57;16.43;;;17.40;89.50;;;;;;5110068;29;20138;-29
2022/03/25 11:24:33;;;;;;;21.00;17.35;;;17.40;91.10;;;;;;5109892;29;20556;-28
2022/03/25 11:27:18;;;;;;;22.25;18.50;;;17.40;91.50;;;;;;5118609;29;20055;-28
2022/03/25 11:29:50;;;;;;;19.17;16.15;;;17.40;94.90;;;;;;5111307;29;20122;-28
2022/03/25 11:32:21;;;;;;;19.83;17.40;;;17.30;91.80;;;;;;5113661;29;20050;-28
2022/03/25 11:34:55;;;;;;;24.55;18.73;;;17.30;95.10;;;;;;5130302;29;20043;-30
2022/03/25 11:37:30;;;;;;;20.08;16.13;;;17.30;90.10;;;;;;5130353;29;20401;-30
2022/03/25 11:40:15;;;;;;;18.90;15.30;;;17.30;89.20;;;;;;5113438;29;20055;-28
2022/03/25 11:42:50;;;;;;;17.67;15.20;;;17.30;88.30;;;;;;5113275;29;20178;-28
2022/03/25 11:45:24;;;;;;;18.63;15.73;;;17.30;93.30;;;;;;5130797;29;20454;-29
2022/03/25 11:48:03;;;;;;;19.95;14.57;;;17.30;91.30;;;;;;5130691;29;20048;-29
2022/03/25 11:50:40;;;;;;;20.20;15.68;;;17.30;90.40;;;;;;5130214;29;20058;-29
2022/03/25 11:53:25;;;;;;;17.60;14.93;;;17.30;92.80;;;;;;5097742;29;20039;-29
2022/03/25 11:56:06;;;;;;;20.60;15.02;;;17.20;91.30;;;;;;5130212;29;20047;-28
2022/03/25 11:58:38;;;;;;;17.88;14.77;;;17.20;91.90;;;;;;5113265;29;20059;-28
2022/03/25 12:01:12;;;;;;;22.95;15.90;;;17.20;93.50;;;;;;5113221;29;20062;-30
2022/03/25 12:03:49;;;;;;;21.33;19.00;;;17.30;94.20;;;;;;5129540;28;20118;-29
2022/03/25 12:06:25;;;;;;;21.90;19.13;;;16.60;77.60;;;;;;5129717;29;20586;-28
2022/03/25 12:09:21;;;;;;;22.63;19.00;;;15.90;78.50;;;;;;5113207;29;20047;-28
2022/03/25 12:11:59;;;;;;;21.70;18.00;;;15.40;79.30;;;;;;5086278;29;20052;-30
2022/03/25 12:14:32;;;;;;;24.80;19.73;;;15.10;80.00;;;;;;5088340;29;20426;-28
2022/03/25 12:17:07;;;;;;;24.17;19.70;;;14.90;80.20;;;;;;5088002;29;20048;-28
2022/03/25 12:19:41;;;;;;;22.33;19.17;;;14.80;81.20;;;;;;5072254;29;20139;-28
2022/03/25 12:22:21;;;;;;;22.83;19.23;;;14.70;80.80;;;;;;5087979;29;20056;-29
2022/03/25 12:25:13;;;;;;;21.03;17.60;;;14.60;81.00;;;;;;5087730;29;20059;-28
2022/03/25 12:28:03;;;;;;;21.87;17.43;;;14.50;81.00;;;;;;5099424;29;20593;-27
2022/03/25 12:30:42;;;;;;;20.70;16.97;;;14.50;79.10;;;;;;5101818;29;20064;-27
2022/03/25 12:33:30;;;;;;;22.40;19.17;;;14.50;78.60;;;;;;5088336;29;20055;-28
2022/03/25 12:36:17;;;;;;;24.37;20.07;;;14.50;79.50;;;;;;5087391;29;20426;-29
2022/03/25 12:39:17;;;;;;;23.03;19.10;;;14.40;79.90;;;;;;5087286;29;20048;-30
2022/03/25 12:41:55;;;;;;;21.67;17.13;;;14.40;80.00;;;;;;5092215;29;20059;-29
2022/03/25 12:44:30;;;;;;;21.40;15.52;;;14.40;79.80;;;;;;5112262;29;20043;-29
2022/03/25 12:47:01;;;;;;;18.47;15.73;;;14.40;78.60;;;;;;5112017;29;20071;-28
2022/03/25 12:49:33;;;;;;;21.57;17.77;;;14.30;78.60;;;;;;5112250;29;20046;-28
2022/03/25 12:52:05;;;;;;;17.80;15.10;;;14.40;79.10;;;;;;5128831;29;20047;-29
2022/03/25 12:54:37;;;;;;;19.50;15.37;;;14.40;77.90;;;;;;5128717;29;20091;-28
2022/03/25 12:57:08;;;;;;;16.90;14.17;;;14.40;77.90;;;;;;5128998;29;20479;-27
2022/03/25 12:59:39;;;;;;;19.73;16.57;;;14.50;78.00;;;;;;5128934;29;20047;-30
2022/03/25 13:02:10;;;;;;;17.37;14.30;;;14.50;78.50;;;;;;5128668;29;20107;-28